createdAt,value
2022-08-04T05:19:03.906Z,7.43
2022-08-04T05:24:10.641Z,7.28
2022-08-04T05:29:35.133Z,7.13
2022-08-04T05:34:45.488Z,7.22
2022-08-04T05:39:57.269Z,7.83
2022-08-04T05:45:00.317Z,7.20
2022-08-04T05:50:06.234Z,6.88
2022-08-04T05:55:12.673Z,7.28
2022-08-04T06:00:41.264Z,7.15
2022-08-04T06:05:45.131Z,7.20
2022-08-04T06:10:49.580Z,7.10
2022-08-04T06:15:54.824Z,6.93
2022-08-04T06:21:02.170Z,7.88
2022-08-04T06:26:09.380Z,10.45
2022-08-04T06:32:28.823Z,7.43
2022-08-04T06:36:44.535Z,7.25
2022-08-04T06:42:16.945Z,7.22
2022-08-04T06:47:18.399Z,7.18
2022-08-04T06:52:21.485Z,6.80
2022-08-04T06:57:27.869Z,7.20
2022-08-04T07:02:33.406Z,6.70
2022-08-04T07:07:37.186Z,7.15
2022-08-04T07:13:00.343Z,7.00
2022-08-04T07:18:04.755Z,6.97
2022-08-04T07:23:08.458Z,7.25
2022-08-04T07:28:10.800Z,6.40
2022-08-04T07:33:14.445Z,7.03
2022-08-04T07:38:16.791Z,7.13
2022-08-04T07:43:20.416Z,6.55
2022-08-04T07:48:24.373Z,6.97
2022-08-04T07:53:53.525Z,6.43
2022-08-04T07:58:49.835Z,6.75
2022-08-04T08:03:58.635Z,6.32
2022-08-04T08:09:13.192Z,5.67
2022-08-04T08:14:18.119Z,5.35
2022-08-04T08:19:20.832Z,5.30
2022-08-04T08:24:23.249Z,3.78
2022-08-04T08:29:26.597Z,4.05
2022-08-04T08:34:30.561Z,3.78
2022-08-04T08:39:38.505Z,3.88
2022-08-04T08:45:08.615Z,3.42
2022-08-04T08:50:23.671Z,3.30
2022-08-04T08:56:03.140Z,3.17
2022-08-04T09:01:30.034Z,3.08
2022-08-04T09:06:46.474Z,3.10
2022-08-04T09:12:09.768Z,3.05
2022-08-04T09:17:22.231Z,3.05
2022-08-04T09:22:50.044Z,2.97
2022-08-04T09:27:55.830Z,3.15
2022-08-04T09:33:11.268Z,2.63
2022-08-04T09:38:31.870Z,2.92
2022-08-04T09:44:52.476Z,3.35
2022-08-04T09:49:33.855Z,3.00
2022-08-04T09:55:02.299Z,3.08
2022-08-04T10:00:10.295Z,2.88
2022-08-04T10:05:20.458Z,2.50
2022-08-04T10:10:40.534Z,2.60
2022-08-04T10:16:03.756Z,2.63
2022-08-04T10:21:35.159Z,2.50
2022-08-04T10:26:58.422Z,2.83
2022-08-04T10:32:09.434Z,2.30
2022-08-04T10:38:00.238Z,2.10
2022-08-04T10:43:00.145Z,2.33
2022-08-04T10:48:16.842Z,2.63
2022-08-04T10:53:38.934Z,2.22
2022-08-04T10:58:52.991Z,2.10
2022-08-04T11:04:00.275Z,2.47
2022-08-04T11:09:05.315Z,2.50
2022-08-04T11:14:20.642Z,2.35
2022-08-04T11:19:45.149Z,2.58
2022-08-04T11:24:50.957Z,2.20
2022-08-04T11:30:08.163Z,2.40
2022-08-04T11:35:19.284Z,2.50
2022-08-04T11:40:30.077Z,2.22
2022-08-04T11:45:38.126Z,2.20
2022-08-04T11:50:45.153Z,2.50
2022-08-04T11:56:06.887Z,2.55
2022-08-04T12:01:37.672Z,2.30
2022-08-04T12:06:56.994Z,2.22
2022-08-04T12:12:27.974Z,2.70
2022-08-04T12:18:05.748Z,2.83
2022-08-04T12:23:23.015Z,2.55
2022-08-04T12:34:39.978Z,2.53
2022-08-04T12:40:28.805Z,2.25
2022-08-04T12:45:12.181Z,2.47
2022-08-04T12:50:16.025Z,2.50
2022-08-04T12:55:22.137Z,2.28
2022-08-04T13:00:30.458Z,2.72
2022-08-04T13:05:35.421Z,2.60
2022-08-04T13:10:45.722Z,2.63
2022-08-04T13:16:02.661Z,2.63
2022-08-04T13:21:50.270Z,2.45
2022-08-04T13:27:03.863Z,2.20
2022-08-04T13:32:06.836Z,2.63
2022-08-04T13:37:11.096Z,2.50
2022-08-04T13:42:26.319Z,3.17
2022-08-04T13:47:31.713Z,2.58
2022-08-04T13:52:34.647Z,2.30
2022-08-04T13:57:45.198Z,2.28
2022-08-04T14:02:52.712Z,2.80
2022-08-04T14:08:09.578Z,2.75
2022-08-04T14:13:11.874Z,2.50
2022-08-04T14:18:27.496Z,3.13
2022-08-04T14:23:47.675Z,2.42
2022-08-04T14:29:25.256Z,2.50
2022-08-04T14:34:28.976Z,2.50
2022-08-04T14:40:17.496Z,2.87
2022-08-04T14:45:12.077Z,2.45
2022-08-04T14:50:14.878Z,3.05
2022-08-04T14:55:21.960Z,2.85
2022-08-04T15:00:36.622Z,2.63
2022-08-04T15:06:03.208Z,2.95
2022-08-04T15:11:05.295Z,3.10
2022-08-04T15:16:11.281Z,2.80
2022-08-04T15:21:15.005Z,2.75
2022-08-04T15:26:23.660Z,2.85
2022-08-04T15:32:07.569Z,2.47
2022-08-04T15:37:06.776Z,2.92
2022-08-04T15:42:23.858Z,2.88
2022-08-04T15:47:27.272Z,3.03
2022-08-04T15:52:31.985Z,2.70
2022-08-04T15:58:00.099Z,2.95
2022-08-04T16:03:02.511Z,2.78
2022-08-04T16:08:13.254Z,2.78
2022-08-04T16:13:19.731Z,2.95
2022-08-04T16:18:26.226Z,3.00
2022-08-04T16:23:53.638Z,2.37
2022-08-04T16:28:56.991Z,2.03
2022-08-04T16:34:37.501Z,2.33
2022-08-04T16:39:23.320Z,2.35
2022-08-04T16:44:52.737Z,2.45
2022-08-04T16:50:02.360Z,2.30
2022-08-04T16:55:04.988Z,2.40
2022-08-04T17:00:08.592Z,2.30
2022-08-04T17:05:38.465Z,2.17
2022-08-04T17:10:45.163Z,2.30
2022-08-04T17:15:49.961Z,2.25
2022-08-04T17:20:58.969Z,2.33
2022-08-04T17:26:09.552Z,2.40
2022-08-04T17:31:15.279Z,2.30
2022-08-04T17:36:18.411Z,2.40
2022-08-04T17:41:30.480Z,2.30
2022-08-04T17:46:45.625Z,2.00
2022-08-04T17:52:07.143Z,2.38
2022-08-04T17:57:19.930Z,2.63
2022-08-04T18:02:35.084Z,2.88
2022-08-04T18:08:42.932Z,2.83
2022-08-04T18:13:14.140Z,2.97
2022-08-04T18:18:23.608Z,2.92
2022-08-04T18:23:31.363Z,2.85
2022-08-04T18:28:34.857Z,3.15
2022-08-04T18:33:39.505Z,2.88
2022-08-04T18:38:54.562Z,2.72
2022-08-04T18:43:58.720Z,2.60
2022-08-04T18:49:02.161Z,2.70
2022-08-04T18:54:05.985Z,2.72
2022-08-04T18:59:10.377Z,3.00
2022-08-04T19:09:51.783Z,3.10
2022-08-04T19:20:25.073Z,3.42
2022-08-04T19:25:58.714Z,3.38
2022-08-04T19:30:51.257Z,3.70
2022-08-04T19:35:53.613Z,3.40
2022-08-04T19:40:56.077Z,3.55
2022-08-04T19:45:58.582Z,3.45
2022-08-04T19:51:01.299Z,3.53
2022-08-04T19:56:04.495Z,3.40
2022-08-04T20:01:22.787Z,3.88
2022-08-04T20:06:29.170Z,6.00
2022-08-04T20:11:32.195Z,4.47
2022-08-04T20:16:36.030Z,4.68
2022-08-04T20:21:56.062Z,5.43
2022-08-04T20:26:58.931Z,5.60
2022-08-04T20:32:05.648Z,4.85
2022-08-04T20:37:11.198Z,4.97
2022-08-04T20:42:15.520Z,4.90
2022-08-04T20:47:17.937Z,4.90
2022-08-04T20:52:20.963Z,4.80
2022-08-04T20:57:48.879Z,4.60
2022-08-04T21:02:45.670Z,4.53
2022-08-04T21:07:48.852Z,3.80
2022-08-04T21:12:51.622Z,3.72
2022-08-04T21:17:59.104Z,4.13
2022-08-04T21:23:07.279Z,4.10
2022-08-04T21:28:09.901Z,3.80
2022-08-04T21:33:12.194Z,4.10
2022-08-04T21:38:17.673Z,4.15
2022-08-04T21:43:23.545Z,4.00
